Time;durP1;ratioP1;P1;durP2;ratioP2;P2;SDS_P1;SDS_P2;PMS_P1;PMS_P2;Temp;Humidity;BMP_temperature;BMP_pressure;BME280_temperature;BME280_humidity;BME280_pressure;Samples;Min_cycle;Max_cycle;Signal;HPM_P1;HPM_P2
2023/04/08 00:00:44;;;;;;;14.50;13.30;;;;;;;4.37;95.37;101682.69;5115508;28;20189;-72
2023/04/08 00:03:11;;;;;;;13.47;12.30;;;;;;;4.31;95.28;101680.19;5115944;28;20200;-71
2023/04/08 00:05:37;;;;;;;14.83;13.30;;;;;;;4.30;95.58;101681.13;5115587;28;20185;-71
2023/04/08 00:08:04;;;;;;;14.93;13.67;;;;;;;4.28;96.18;101680.31;5115344;28;20558;-71
2023/04/08 00:10:31;;;;;;;49.40;13.77;;;;;;;4.22;95.88;101681.38;5115233;28;20185;-71
2023/04/08 00:12:59;;;;;;;14.23;13.03;;;;;;;4.20;95.98;101677.88;5115304;28;20267;-72
2023/04/08 00:15:26;;;;;;;14.43;13.17;;;;;;;4.18;95.91;101680.56;5115060;28;20212;-71
2023/04/08 00:17:53;;;;;;;18.07;16.27;;;;;;;4.21;96.01;101682.25;5115363;28;20177;-72
2023/04/08 00:20:23;;;;;;;15.53;13.97;;;;;;;4.17;96.11;101680.63;5115109;28;20200;-72
2023/04/08 00:22:49;;;;;;;15.23;13.50;;;;;;;4.11;95.50;101680.81;5115593;28;20189;-72
2023/04/08 00:25:16;;;;;;;12.90;11.93;;;;;;;4.04;95.57;101685.41;5115506;28;20237;-71
2023/04/08 00:27:42;;;;;;;12.13;11.10;;;;;;;4.00;96.05;101691.75;5115149;28;20195;-71
2023/04/08 00:30:09;;;;;;;12.00;11.20;;;;;;;3.94;95.84;101684.81;5114905;28;20192;-71
2023/04/08 00:32:35;;;;;;;17.67;15.77;;;;;;;3.91;96.04;101694.66;5114887;28;20184;-72
2023/04/08 00:35:03;;;;;;;68.87;16.57;;;;;;;3.81;95.33;101697.56;5114690;28;20667;-71
2023/04/08 00:37:30;;;;;;;15.47;13.87;;;;;;;3.83;96.62;101698.38;5115302;28;20188;-71
2023/04/08 00:39:56;;;;;;;15.97;14.50;;;;;;;3.82;96.07;101695.75;5115010;28;20192;-71
2023/04/08 00:42:23;;;;;;;19.00;16.60;;;;;;;3.83;96.09;101694.84;5114961;28;20193;-71
2023/04/08 00:44:49;;;;;;;19.13;17.13;;;;;;;3.86;96.29;101696.56;5114535;28;20223;-71
2023/04/08 00:47:16;;;;;;;19.33;15.63;;;;;;;3.84;96.01;101693.94;5096361;28;20223;-73
2023/04/08 00:49:43;;;;;;;19.87;17.07;;;;;;;3.83;96.28;101700.13;5096860;28;20283;-73
2023/04/08 00:52:09;;;;;;;28.27;16.37;;;;;;;3.80;95.71;101698.44;5114490;28;20191;-73
2023/04/08 00:54:37;;;;;;;17.07;15.43;;;;;;;3.78;95.96;101695.00;5114569;28;20214;-71
2023/04/08 00:57:05;;;;;;;14.30;13.20;;;;;;;3.73;95.84;101704.81;5114378;28;20199;-71
2023/04/08 00:59:32;;;;;;;35.13;16.40;;;;;;;3.70;96.13;101696.09;5114368;28;20237;-71
2023/04/08 01:02:11;;;;;;;15.80;14.20;;;;;;;3.67;96.15;101701.50;5114381;28;20185;-71
2023/04/08 01:04:43;;;;;;;15.77;14.10;;;;;;;3.63;95.47;101701.56;5113587;28;20620;-71
2023/04/08 01:07:17;;;;;;;13.53;12.27;;;;;;;3.60;95.89;101704.31;5114825;28;20537;-71
2023/04/08 01:09:50;;;;;;;14.03;12.63;;;;;;;3.58;95.85;101699.97;5095954;28;20554;-73
2023/04/08 01:12:21;;;;;;;13.53;12.40;;;;;;;3.54;95.94;101711.53;5114508;28;20619;-73
2023/04/08 01:14:51;;;;;;;15.60;14.17;;;;;;;3.55;96.39;101706.22;5114079;28;20554;-71
2023/04/08 01:17:20;;;;;;;13.93;12.80;;;;;;;3.54;95.96;101700.94;5114353;28;20584;-71
2023/04/08 01:19:48;;;;;;;22.47;14.43;;;;;;;3.52;95.63;101706.31;5095792;28;20233;-72
2023/04/08 01:22:36;;;;;;;15.30;13.83;;;;;;;3.47;95.93;101702.91;5113951;28;20195;-72
2023/04/08 01:25:14;;;;;;;15.50;13.97;;;;;;;3.46;96.24;101711.75;5095709;28;20199;-72
2023/04/08 01:27:42;;;;;;;27.93;18.07;;;;;;;3.36;95.59;101704.97;5114076;28;20308;-72
2023/04/08 01:30:09;;;;;;;19.50;16.83;;;;;;;3.32;96.12;101713.88;5113936;28;20227;-72
2023/04/08 01:32:37;;;;;;;17.10;15.13;;;;;;;3.24;96.28;101724.69;5114419;28;20267;-72
2023/04/08 01:35:05;;;;;;;24.63;18.33;;;;;;;3.20;96.34;101712.41;5095507;28;20573;-71
2023/04/08 01:37:32;;;;;;;19.43;16.40;;;;;;;3.21;96.66;101714.19;5113790;28;20186;-71
2023/04/08 01:40:01;;;;;;;19.47;17.43;;;;;;;3.26;96.26;101711.41;5113995;28;20654;-71
2023/04/08 01:42:28;;;;;;;24.10;19.73;;;;;;;3.22;96.08;101720.34;5114002;28;20280;-71
2023/04/08 01:44:58;;;;;;;21.70;18.23;;;;;;;3.19;96.72;101718.63;5113692;28;20203;-72
2023/04/08 01:47:25;;;;;;;33.73;19.93;;;;;;;3.13;96.51;101718.78;5114279;28;20187;-72
2023/04/08 01:49:52;;;;;;;21.83;18.27;;;;;;;3.12;96.55;101717.03;5113679;28;20182;-72
2023/04/08 01:52:19;;;;;;;34.43;20.73;;;;;;;3.11;96.22;101717.94;5113918;28;20189;-72
2023/04/08 01:54:46;;;;;;;29.40;20.17;;;;;;;3.11;96.37;101723.22;5095196;28;20701;-71
2023/04/08 01:57:22;;;;;;;32.63;23.73;;;;;;;3.12;96.80;101717.91;5113676;28;20190;-71
2023/04/08 01:59:52;;;;;;;27.50;21.17;;;;;;;3.11;96.57;101717.94;5095370;28;20192;-71
2023/04/08 02:02:21;;;;;;;37.17;23.40;;;;;;;3.09;96.50;101702.13;5095381;28;20230;-71
2023/04/08 02:04:48;;;;;;;30.33;22.47;;;;;;;3.06;96.43;101709.25;5113585;28;20216;-71
2023/04/08 02:07:15;;;;;;;27.10;21.90;;;;;;;3.08;96.62;101710.94;5095353;28;20203;-71
2023/04/08 02:09:41;;;;;;;29.27;22.47;;;;;;;3.09;95.69;101714.44;5113515;28;20184;-72
2023/04/08 02:12:07;;;;;;;28.87;21.20;;;;;;;3.07;96.10;101708.34;5113724;28;20216;-72
2023/04/08 02:14:34;;;;;;;25.27;20.43;;;;;;;3.07;96.11;101714.50;5095578;28;20214;-71
2023/04/08 02:17:12;;;;;;;31.40;20.57;;;;;;;3.03;96.58;101710.19;5117758;28;20218;-71
2023/04/08 02:19:58;;;;;;;25.60;20.97;;;;;;;3.05;96.25;101715.47;5099239;28;20185;-71
2023/04/08 02:22:46;;;;;;;27.23;20.93;;;;;;;3.03;96.24;101717.28;5118016;28;20626;-71
2023/04/08 02:25:16;;;;;;;24.33;19.80;;;;;;;3.05;96.42;101712.81;5117660;28;20199;-71
2023/04/08 02:27:47;;;;;;;28.63;22.13;;;;;;;3.05;96.70;101718.97;5098911;28;20193;-71
2023/04/08 02:30:16;;;;;;;27.83;21.93;;;;;;;3.09;96.65;101727.69;5117945;28;20181;-72
2023/04/08 02:32:44;;;;;;;28.57;21.37;;;;;;;3.10;96.82;101721.50;5117225;28;20278;-72
2023/04/08 02:35:14;;;;;;;23.77;20.13;;;;;;;3.08;96.87;101726.81;5099013;28;20586;-72
2023/04/08 02:37:41;;;;;;;27.67;21.23;;;;;;;3.10;96.52;101732.09;5117071;28;20213;-72
2023/04/08 02:40:30;;;;;;;25.70;21.07;;;;;;;3.10;96.42;101737.38;5099150;28;20185;-72
2023/04/08 02:42:58;;;;;;;24.00;20.07;;;;;;;3.11;96.28;101734.72;5117368;28;20175;-72
2023/04/08 02:45:39;;;;;;;28.03;18.63;;;;;;;3.09;96.44;101733.88;5117242;28;20214;-71
2023/04/08 02:48:07;;;;;;;21.63;18.53;;;;;;;3.09;96.82;101730.34;5098693;28;20181;-71
2023/04/08 02:50:33;;;;;;;24.83;19.10;;;;;;;3.08;96.43;101731.25;5116884;28;20186;-71
2023/04/08 02:53:00;;;;;;;25.87;19.90;;;;;;;3.09;96.81;101723.28;5098574;28;20221;-71
2023/04/08 02:55:28;;;;;;;27.53;20.17;;;;;;;3.12;96.08;101731.13;5098378;28;20219;-71
2023/04/08 02:57:55;;;;;;;36.70;22.93;;;;;;;3.17;96.61;101734.53;5116966;28;20196;-71
2023/04/08 03:00:21;;;;;;;42.63;21.57;;;;;;;3.17;96.82;101733.69;5116718;28;20186;-73
2023/04/08 03:02:47;;;;;;;26.20;21.57;;;;;;;3.17;96.77;101731.03;5116640;28;20666;-72
2023/04/08 03:05:15;;;;;;;24.37;20.27;;;;;;;3.16;96.43;101738.09;5116517;28;20206;-71
2023/04/08 03:07:42;;;;;;;30.97;22.57;;;;;;;3.17;97.00;101737.19;5116543;28;20188;-71
2023/04/08 03:10:08;;;;;;;29.40;23.57;;;;;;;3.19;96.60;101727.44;5116797;28;20186;-71
2023/04/08 03:12:35;;;;;;;33.23;23.77;;;;;;;3.25;96.67;101734.34;5116730;28;20197;-71
2023/04/08 03:15:02;;;;;;;29.17;22.60;;;;;;;3.28;96.67;101738.69;5116269;28;20214;-71
2023/04/08 03:17:31;;;;;;;30.37;22.13;;;;;;;3.27;97.17;101729.03;5116886;28;20182;-71
2023/04/08 03:19:58;;;;;;;31.33;23.17;;;;;;;3.35;97.25;101742.91;5116269;28;20189;-71
2023/04/08 03:22:24;;;;;;;37.40;22.67;;;;;;;3.31;97.31;101738.63;5116394;28;20192;-71
2023/04/08 03:24:51;;;;;;;39.87;23.43;;;;;;;3.33;96.71;101748.28;5116171;28;20211;-71
2023/04/08 03:27:17;;;;;;;28.40;21.57;;;;;;;3.34;96.60;101746.50;5115533;28;20194;-72
2023/04/08 03:29:45;;;;;;;26.90;21.93;;;;;;;3.32;97.30;101743.88;5117178;28;20273;-72
2023/04/08 03:32:12;;;;;;;41.97;22.37;;;;;;;3.31;97.50;101750.09;5116457;28;20206;-72
2023/04/08 03:34:38;;;;;;;28.13;21.07;;;;;;;3.30;97.55;101750.13;5117587;28;20206;-71
2023/04/08 03:37:05;;;;;;;35.17;22.10;;;;;;;3.36;96.83;101750.84;5118548;28;20221;-71
2023/04/08 03:39:32;;;;;;;41.47;21.43;;;;;;;3.40;97.67;101751.63;5116871;28;20219;-71
2023/04/08 03:41:59;;;;;;;34.73;21.27;;;;;;;3.40;97.73;101757.81;5116595;28;20185;-72
2023/04/08 03:44:26;;;;;;;31.27;21.47;;;;;;;3.42;97.40;101757.75;5115970;28;20694;-71
2023/04/08 03:46:52;;;;;;;32.10;21.30;;;;;;;3.41;96.76;101751.59;5116149;28;20233;-72
2023/04/08 03:49:19;;;;;;;27.77;20.53;;;;;;;3.44;97.29;101755.06;5119013;28;20273;-72
2023/04/08 03:51:45;;;;;;;24.20;20.23;;;;;;;3.39;97.37;101753.41;5119156;28;20191;-72
2023/04/08 03:54:12;;;;;;;24.90;20.57;;;;;;;3.46;97.52;101754.13;5117216;28;20572;-71
2023/04/08 03:56:38;;;;;;;25.80;21.13;;;;;;;3.49;97.03;101750.50;5118516;28;20207;-72
2023/04/08 03:59:04;;;;;;;32.07;21.63;;;;;;;3.50;97.00;101757.56;5117234;28;20197;-72
2023/04/08 04:01:31;;;;;;;22.70;19.93;;;;;;;3.53;97.92;101760.13;5116396;28;20218;-72
2023/04/08 04:03:58;;;;;;;25.70;21.67;;;;;;;3.53;96.99;101749.53;5117268;28;20211;-71
2023/04/08 04:06:25;;;;;;;24.23;19.80;;;;;;;3.53;97.17;101754.84;5116301;28;20815;-71
2023/04/08 04:08:54;;;;;;;30.37;21.77;;;;;;;3.55;97.53;101748.59;5116139;28;20270;-71
2023/04/08 04:11:21;;;;;;;27.23;21.50;;;;;;;3.53;97.12;101754.84;5115533;28;20210;-71
2023/04/08 04:13:48;;;;;;;29.00;22.73;;;;;;;3.57;97.81;101751.22;5115667;28;20238;-71
2023/04/08 04:16:14;;;;;;;26.30;22.63;;;;;;;3.54;97.00;101759.22;5115166;28;20264;-71
2023/04/08 04:18:40;;;;;;;56.70;23.20;;;;;;;3.53;97.82;101766.28;5115153;28;20192;-71
2023/04/08 04:21:07;;;;;;;46.67;24.20;;;;;;;3.49;97.54;101777.88;5115154;28;20219;-71
2023/04/08 04:23:34;;;;;;;28.00;22.77;;;;;;;3.52;97.60;101772.50;5114972;28;20216;-71
2023/04/08 04:26:00;;;;;;;24.27;21.03;;;;;;;3.54;97.14;101767.16;5114964;28;20199;-72
2023/04/08 04:28:27;;;;;;;31.67;24.03;;;;;;;3.47;97.59;101776.16;5115425;28;20171;-72
2023/04/08 04:30:53;;;;;;;73.30;26.00;;;;;;;3.43;97.06;101772.75;5115134;28;20198;-72
2023/04/08 04:33:22;;;;;;;36.83;24.87;;;;;;;3.40;97.37;101771.03;5114828;28;20195;-72
2023/04/08 04:35:48;;;;;;;41.03;23.80;;;;;;;3.36;97.61;101771.16;5115043;28;20298;-72
2023/04/08 04:38:15;;;;;;;40.90;23.43;;;;;;;3.35;97.74;101767.63;5115097;28;20200;-72
2023/04/08 04:40:41;;;;;;;29.80;23.77;;;;;;;3.36;97.25;101772.00;5114810;28;20531;-72
2023/04/08 04:43:07;;;;;;;30.60;22.30;;;;;;;3.34;97.89;101771.19;5114733;28;20193;-72
2023/04/08 04:45:34;;;;;;;41.37;24.10;;;;;;;3.33;97.32;101777.41;5115269;28;20198;-72
2023/04/08 04:48:00;;;;;;;43.07;23.63;;;;;;;3.31;97.64;101788.94;5114652;28;20190;-72
2023/04/08 04:50:27;;;;;;;30.73;22.90;;;;;;;3.32;97.57;101777.41;5114882;28;20654;-72
2023/04/08 04:52:53;;;;;;;38.33;24.47;;;;;;;3.23;97.62;101791.75;5114764;28;20683;-72
2023/04/08 04:55:21;;;;;;;35.90;24.70;;;;;;;3.22;96.96;101789.16;5097186;28;20551;-71
2023/04/08 04:57:48;;;;;;;31.67;24.37;;;;;;;3.24;97.00;101795.28;5114276;28;20206;-71
2023/04/08 05:00:15;;;;;;;31.87;23.13;;;;;;;3.20;97.21;101783.88;5114721;28;20541;-71
2023/04/08 05:02:41;;;;;;;29.97;21.53;;;;;;;3.19;97.81;101793.59;5114360;28;20189;-71
2023/04/08 05:05:08;;;;;;;26.00;20.30;;;;;;;3.15;97.47;101797.22;5114177;28;20206;-72
2023/04/08 05:07:35;;;;;;;29.47;22.77;;;;;;;3.18;97.28;101798.94;5114231;28;20188;-72
2023/04/08 05:10:03;;;;;;;28.00;22.00;;;;;;;3.21;97.77;101796.22;5114929;28;20544;-72
2023/04/08 05:12:29;;;;;;;28.93;23.37;;;;;;;3.26;97.13;101798.78;5114189;28;20559;-72
2023/04/08 05:14:59;;;;;;;47.07;24.20;;;;;;;3.26;97.92;101809.34;5114008;28;20209;-72
2023/04/08 05:17:25;;;;;;;65.83;24.03;;;;;;;3.19;97.17;101816.56;5113988;28;20214;-72
2023/04/08 05:19:52;;;;;;;31.83;21.27;;;;;;;3.22;97.17;101808.53;5114125;28;20226;-72
2023/04/08 05:22:23;;;;;;;28.53;21.83;;;;;;;3.23;97.04;101812.06;5114276;28;20258;-72
2023/04/08 05:24:50;;;;;;;29.00;22.17;;;;;;;3.22;96.78;101816.47;5113934;28;20206;-71
2023/04/08 05:27:16;;;;;;;29.27;21.33;;;;;;;3.23;97.71;101812.91;5113964;28;20190;-71
2023/04/08 05:29:43;;;;;;;26.17;21.10;;;;;;;3.20;97.69;101815.66;5114216;28;20183;-71
2023/04/08 05:32:09;;;;;;;30.30;21.60;;;;;;;3.20;97.59;101813.00;5113902;28;20182;-72
2023/04/08 05:34:35;;;;;;;27.93;22.17;;;;;;;3.23;97.72;101817.34;5113885;28;20207;-72
2023/04/08 05:37:02;;;;;;;55.63;22.17;;;;;;;3.25;96.97;101819.03;5114047;28;20575;-72
2023/04/08 05:39:28;;;;;;;57.33;22.20;;;;;;;3.22;97.35;101821.78;5113787;28;20178;-72
2023/04/08 05:41:54;;;;;;;27.83;21.60;;;;;;;3.23;96.68;101818.22;5114335;28;20183;-72
2023/04/08 05:44:21;;;;;;;25.50;21.47;;;;;;;3.25;97.05;101821.69;5113844;28;20554;-71
2023/04/08 05:46:47;;;;;;;26.30;21.97;;;;;;;3.28;97.72;101826.94;5113773;28;20572;-71
2023/04/08 05:49:16;;;;;;;29.07;22.07;;;;;;;3.31;97.59;101821.56;5114621;28;20634;-71
2023/04/08 05:51:42;;;;;;;30.97;22.50;;;;;;;3.35;97.28;101827.63;5120546;28;20195;-71
2023/04/08 05:54:08;;;;;;;30.27;22.87;;;;;;;3.38;97.40;101830.25;5120429;28;20206;-71
2023/04/08 05:56:35;;;;;;;35.13;23.23;;;;;;;3.40;97.03;101828.44;5120711;28;20207;-71
2023/04/08 05:59:01;;;;;;;46.90;22.57;;;;;;;3.37;96.81;101832.00;5120492;28;20189;-72
2023/04/08 06:01:28;;;;;;;39.13;24.47;;;;;;;3.44;96.83;101847.75;5120432;28;20191;-72
2023/04/08 06:03:55;;;;;;;26.93;22.20;;;;;;;3.46;97.41;101854.75;5120368;28;20236;-72
2023/04/08 06:06:22;;;;;;;34.33;23.40;;;;;;;3.53;97.10;101852.81;5120434;28;20202;-72
2023/04/08 06:08:49;;;;;;;35.87;24.53;;;;;;;3.58;97.60;101853.56;5120369;28;20191;-72
2023/04/08 06:11:15;;;;;;;34.30;24.60;;;;;;;3.65;97.69;101856.94;5120284;28;20181;-72
2023/04/08 06:13:42;;;;;;;34.93;25.13;;;;;;;3.64;97.33;101861.38;5120429;28;20215;-72
2023/04/08 06:16:13;;;;;;;36.33;25.97;;;;;;;3.60;97.00;101873.81;5120448;28;20219;-72
2023/04/08 06:18:39;;;;;;;34.03;25.03;;;;;;;3.60;97.29;101868.53;5120244;28;20183;-72
2023/04/08 06:21:05;;;;;;;38.17;26.20;;;;;;;3.62;96.85;101871.13;5120508;28;20192;-73
2023/04/08 06:23:32;;;;;;;34.37;25.57;;;;;;;3.73;97.18;101866.44;5120133;28;20693;-71
2023/04/08 06:25:58;;;;;;;35.30;26.43;;;;;;;3.77;97.36;101867.22;5120284;28;20665;-71
2023/04/08 06:28:25;;;;;;;42.53;27.00;;;;;;;3.81;97.49;101864.47;5120463;28;20180;-71
2023/04/08 06:30:51;;;;;;;42.77;27.83;;;;;;;3.86;97.30;101860.84;5120384;28;20213;-71
2023/04/08 06:33:18;;;;;;;34.67;26.53;;;;;;;3.91;97.17;101856.28;5120590;28;20217;-71
2023/04/08 06:35:44;;;;;;;42.40;27.30;;;;;;;3.94;96.94;101859.72;5120074;28;20196;-71
2023/04/08 06:38:10;;;;;;;40.40;28.70;;;;;;;3.91;96.80;101867.75;5119979;28;20201;-71
2023/04/08 06:40:38;;;;;;;48.37;29.63;;;;;;;3.88;96.93;101880.19;5120033;28;20192;-71
2023/04/08 06:43:06;;;;;;;41.40;28.17;;;;;;;3.93;97.07;101876.53;5120072;28;20216;-71
2023/04/08 06:45:37;;;;;;;42.40;27.73;;;;;;;3.99;96.53;101881.66;5101758;28;20655;-71
2023/04/08 06:48:03;;;;;;;44.60;28.77;;;;;;;4.00;96.28;101887.88;5119917;28;20238;-71
2023/04/08 06:50:30;;;;;;;39.23;26.47;;;;;;;4.10;95.91;101888.50;5120424;28;20199;-71
2023/04/08 06:52:56;;;;;;;44.13;27.73;;;;;;;4.06;95.28;101882.38;5120222;28;20213;-71
2023/04/08 06:55:23;;;;;;;38.87;25.97;;;;;;;4.15;95.15;101890.09;5119875;28;20208;-71
2023/04/08 06:57:49;;;;;;;47.77;28.33;;;;;;;4.20;95.90;101896.16;5120311;28;20212;-71
2023/04/08 07:00:15;;;;;;;38.77;25.67;;;;;;;4.29;95.87;101900.34;5120109;28;20276;-71
2023/04/08 07:02:42;;;;;;;38.20;27.47;;;;;;;4.39;95.47;101904.50;5116054;28;20180;-71
2023/04/08 07:05:09;;;;;;;39.13;26.60;;;;;;;4.47;95.85;101896.31;5116504;28;20245;-71
2023/04/08 07:07:35;;;;;;;39.97;27.53;;;;;;;4.64;95.55;101901.16;5116872;28;20291;-71
2023/04/08 07:10:02;;;;;;;40.07;27.93;;;;;;;4.80;95.60;101907.75;5116484;28;20187;-71
2023/04/08 07:12:28;;;;;;;40.97;27.67;;;;;;;4.82;95.63;101911.25;5116943;28;20185;-72
2023/04/08 07:14:54;;;;;;;42.87;29.17;;;;;;;4.86;95.79;101919.97;5116341;28;20207;-71
2023/04/08 07:17:21;;;;;;;40.10;27.80;;;;;;;4.82;94.88;101915.69;5116389;28;20223;-72
2023/04/08 07:19:48;;;;;;;40.37;26.80;;;;;;;4.71;94.10;101920.44;5116356;28;20268;-72
2023/04/08 07:22:14;;;;;;;35.53;25.30;;;;;;;4.88;94.36;101915.50;5116266;28;20722;-72
2023/04/08 07:24:44;;;;;;;32.67;24.83;;;;;;;4.84;94.19;101913.88;5116454;28;20699;-71
2023/04/08 07:27:10;;;;;;;36.80;25.83;;;;;;;4.88;94.22;101918.16;5116259;28;20193;-71
2023/04/08 07:29:37;;;;;;;31.73;24.00;;;;;;;4.99;94.28;101923.16;5116424;28;20268;-71
2023/04/08 07:32:03;;;;;;;39.97;24.03;;;;;;;4.94;94.04;101930.41;5116197;28;20185;-72
2023/04/08 07:34:30;;;;;;;40.93;24.73;;;;;;;5.01;94.44;101924.00;5116231;28;20205;-71
2023/04/08 07:36:56;;;;;;;32.47;24.93;;;;;;;5.18;93.97;101924.34;5116385;28;20213;-71
2023/04/08 07:39:22;;;;;;;34.23;24.43;;;;;;;5.26;93.76;101921.47;5115980;28;20182;-71
2023/04/08 07:41:49;;;;;;;35.47;24.33;;;;;;;5.37;93.72;101915.84;5115844;28;20189;-71
2023/04/08 07:44:16;;;;;;;35.90;24.27;;;;;;;5.45;93.69;101922.63;5115800;28;20208;-71
2023/04/08 07:46:44;;;;;;;30.73;22.40;;;;;;;5.51;93.31;101919.81;5115804;28;20189;-71
2023/04/08 07:49:11;;;;;;;37.20;25.27;;;;;;;5.54;92.67;101918.84;5115704;28;20185;-71
2023/04/08 07:51:38;;;;;;;27.97;22.23;;;;;;;5.60;92.20;101931.03;5115971;28;20189;-71
2023/04/08 07:54:04;;;;;;;33.83;25.43;;;;;;;5.61;91.89;101932.81;5115589;28;20205;-71
2023/04/08 07:56:31;;;;;;;37.23;24.20;;;;;;;5.66;91.06;101937.03;5097318;28;20189;-71
2023/04/08 07:58:57;;;;;;;32.33;24.07;;;;;;;5.51;90.29;101948.16;5115619;28;20194;-71
2023/04/08 08:01:23;;;;;;;24.50;21.30;;;;;;;5.60;90.77;101954.97;5115703;28;20659;-71
2023/04/08 08:03:51;;;;;;;31.27;22.93;;;;;;;5.70;90.46;101959.09;5115656;28;20215;-71
2023/04/08 08:06:18;;;;;;;33.27;22.77;;;;;;;5.68;89.87;101964.44;5115363;28;20185;-71
2023/04/08 08:08:45;;;;;;;30.27;23.57;;;;;;;5.87;90.23;101962.06;5116106;28;20702;-71
2023/04/08 08:11:11;;;;;;;38.40;23.93;;;;;;;5.99;89.59;101965.28;5115376;28;20343;-71
2023/04/08 08:13:37;;;;;;;26.70;22.53;;;;;;;6.06;89.42;101956.19;5114872;28;20198;-71
2023/04/08 08:16:07;;;;;;;30.77;22.73;;;;;;;6.13;88.83;101961.25;5115196;28;20189;-71
2023/04/08 08:18:34;;;;;;;23.77;21.27;;;;;;;6.21;88.22;101966.31;5115331;28;20210;-72
2023/04/08 08:21:01;;;;;;;27.33;20.80;;;;;;;6.26;87.49;101964.38;5115396;28;20188;-72
2023/04/08 08:23:28;;;;;;;25.40;19.90;;;;;;;6.26;86.06;101968.81;5114983;28;20193;-71
2023/04/08 08:26:05;;;;;;;20.60;18.40;;;;;;;6.30;85.94;101973.97;5114937;28;20272;-71
2023/04/08 08:28:32;;;;;;;21.63;18.77;;;;;;;6.16;85.95;101981.56;5116057;28;20522;-71
2023/04/08 08:30:58;;;;;;;21.20;19.03;;;;;;;6.26;85.09;101980.31;5114929;28;20182;-71
2023/04/08 08:33:25;;;;;;;19.80;17.70;;;;;;;6.29;84.32;101982.88;5114842;28;20659;-71
2023/04/08 08:35:52;;;;;;;20.13;17.30;;;;;;;6.30;84.31;101979.31;5115344;28;20238;-71
2023/04/08 08:38:18;;;;;;;20.20;17.07;;;;;;;6.36;84.08;101984.41;5115216;28;20260;-71
2023/04/08 08:40:45;;;;;;;25.73;17.17;;;;;;;6.39;83.92;101980.75;5114728;28;20193;-71
2023/04/08 08:43:11;;;;;;;19.57;17.50;;;;;;;6.41;83.65;101986.91;5115068;28;20178;-71
2023/04/08 08:45:39;;;;;;;21.23;17.83;;;;;;;6.52;84.09;101990.09;5114929;28;20197;-71
2023/04/08 08:48:07;;;;;;;21.20;17.67;;;;;;;6.56;85.84;101989.06;5114602;28;20181;-71
2023/04/08 08:50:34;;;;;;;19.63;17.60;;;;;;;6.70;84.39;101990.34;5114503;28;20185;-71
2023/04/08 08:53:02;;;;;;;21.20;16.90;;;;;;;6.74;83.92;101992.00;5115003;28;20193;-71
2023/04/08 08:55:32;;;;;;;18.07;16.17;;;;;;;6.78;83.31;101990.97;5114361;28;20204;-71
2023/04/08 08:58:19;;;;;;;16.83;15.27;;;;;;;6.90;82.99;101990.53;5114595;28;20199;-71
2023/04/08 09:00:45;;;;;;;19.10;16.23;;;;;;;6.94;83.92;101992.16;5114352;28;20530;-71
2023/04/08 09:03:28;;;;;;;18.47;15.57;;;;;;;7.09;82.14;101993.41;5114094;28;20190;-71
2023/04/08 09:06:04;;;;;;;16.77;15.07;;;;;;;7.18;82.84;102000.16;5114541;28;20165;-71
2023/04/08 09:08:32;;;;;;;16.60;14.63;;;;;;;7.24;83.43;102011.47;5114415;28;20184;-71
2023/04/08 09:11:16;;;;;;;18.27;16.57;;;;;;;7.32;83.44;102010.31;5114252;28;20181;-71
2023/04/08 09:13:44;;;;;;;17.47;14.60;;;;;;;7.35;83.10;102005.75;5114336;28;20208;-71
2023/04/08 09:16:13;;;;;;;17.97;16.20;;;;;;;7.57;83.62;102007.59;5114344;28;20192;-71
2023/04/08 09:18:43;;;;;;;16.00;14.60;;;;;;;7.72;82.63;102006.13;5113972;28;20572;-71
2023/04/08 09:21:11;;;;;;;16.83;15.17;;;;;;;7.83;82.38;101998.56;5114032;28;20216;-71
2023/04/08 09:23:40;;;;;;;15.53;14.20;;;;;;;7.98;81.92;101992.63;5113968;28;20210;-71
2023/04/08 09:26:09;;;;;;;15.33;13.93;;;;;;;8.08;81.11;101996.63;5113555;28;20211;-72
2023/04/08 09:28:36;;;;;;;16.30;14.50;;;;;;;7.94;78.92;102007.00;5114764;28;20269;-72
2023/04/08 09:31:19;;;;;;;14.90;13.33;;;;;;;7.77;78.63;102007.66;5114154;28;20185;-72
2023/04/08 09:33:47;;;;;;;15.27;13.53;;;;;;;7.83;80.25;102006.59;5113815;28;20211;-71
2023/04/08 09:36:15;;;;;;;23.07;14.40;;;;;;;7.80;80.42;102006.69;5114027;28;20193;-71
2023/04/08 09:38:42;;;;;;;14.27;13.10;;;;;;;7.80;79.41;102009.34;5113752;28;20204;-71
2023/04/08 09:41:12;;;;;;;16.13;14.70;;;;;;;7.77;78.53;102015.66;5114058;28;20191;-71
2023/04/08 09:43:48;;;;;;;14.07;13.07;;;;;;;7.74;78.31;102013.13;5113736;28;20299;-71
2023/04/08 09:46:17;;;;;;;13.37;12.33;;;;;;;7.75;77.45;102006.84;5114269;28;20212;-71
2023/04/08 09:49:09;;;;;;;14.53;12.50;;;;;;;7.85;76.69;102010.91;5113743;28;20181;-71
2023/04/08 09:51:52;;;;;;;15.23;13.80;;;;;;;7.84;77.39;102019.84;5113699;28;20205;-71
2023/04/08 09:54:22;;;;;;;14.30;13.17;;;;;;;7.72;78.24;102016.78;5113824;28;20205;-71
2023/04/08 09:56:56;;;;;;;16.80;13.27;;;;;;;7.78;78.01;102014.75;5113549;28;20268;-71
2023/04/08 09:59:26;;;;;;;14.70;13.33;;;;;;;7.72;77.83;102014.97;5113558;28;20173;-71
2023/04/08 10:01:55;;;;;;;14.60;13.30;;;;;;;7.75;78.11;102012.19;5114288;28;20634;-71
2023/04/08 10:04:23;;;;;;;13.83;12.70;;;;;;;7.71;77.46;102005.25;5113470;28;20571;-71
2023/04/08 10:06:53;;;;;;;14.50;13.27;;;;;;;7.73;77.78;102010.50;5113417;28;20196;-71
2023/04/08 10:09:21;;;;;;;14.83;13.20;;;;;;;7.72;78.05;102006.97;5113744;28;20181;-71
2023/04/08 10:11:48;;;;;;;16.47;13.87;;;;;;;7.72;78.70;102011.47;5113345;28;20195;-71
2023/04/08 10:14:15;;;;;;;15.00;13.50;;;;;;;7.57;78.15;102008.47;5113643;28;20215;-71
2023/04/08 10:16:41;;;;;;;20.53;14.00;;;;;;;7.62;77.53;102017.16;5113463;28;20184;-71
2023/04/08 10:19:40;;;;;;;15.27;13.80;;;;;;;7.57;79.33;102008.47;5113274;28;20243;-71
2023/04/08 10:22:45;;;;;;;15.57;13.97;;;;;;;7.47;79.58;102023.06;5113638;28;20593;-71
2023/04/08 10:25:15;;;;;;;14.97;13.53;;;;;;;7.44;79.45;102025.84;5011242;28;20250;-71
2023/04/08 10:27:43;;;;;;;15.60;14.10;;;;;;;7.55;79.01;102020.09;5011197;28;20282;-71
2023/04/08 10:30:43;;;;;;;18.23;14.03;;;;;;;7.58;79.85;102018.19;5063704;28;20232;-71
2023/04/08 10:33:19;;;;;;;16.17;14.53;;;;;;;7.60;80.62;102021.66;5058794;28;20283;-70
2023/04/08 10:35:47;;;;;;;16.20;14.70;;;;;;;7.68;80.27;102016.03;5114338;28;20208;-71
2023/04/08 10:38:15;;;;;;;15.97;14.50;;;;;;;7.79;80.07;102015.63;5117113;28;20349;-71
2023/04/08 10:40:43;;;;;;;15.57;14.07;;;;;;;7.59;79.56;102017.28;5117104;28;20193;-71
2023/04/08 10:43:11;;;;;;;14.67;13.43;;;;;;;7.69;79.64;102008.91;5117193;28;20530;-70
2023/04/08 10:45:39;;;;;;;16.10;14.57;;;;;;;7.86;79.09;102014.44;5117271;28;20196;-71
2023/04/08 10:48:21;;;;;;;14.03;13.03;;;;;;;7.89;80.12;102011.66;5117007;28;20185;-71
2023/04/08 10:51:05;;;;;;;16.43;14.93;;;;;;;8.16;79.86;102008.78;5116941;28;20185;-71
2023/04/08 10:53:38;;;;;;;14.63;13.07;;;;;;;8.30;80.16;102015.28;5117295;28;20205;-71
2023/04/08 10:56:11;;;;;;;14.20;12.93;;;;;;;8.41;79.47;102006.88;5117086;28;20184;-71
2023/04/08 10:58:52;;;;;;;15.13;13.73;;;;;;;8.49;79.94;102011.91;5116685;28;20667;-71
2023/04/08 11:01:18;;;;;;;14.03;12.87;;;;;;;8.54;79.92;102014.38;5116770;28;20182;-72
2023/04/08 11:03:45;;;;;;;14.67;13.20;;;;;;;8.60;78.06;102011.44;5116588;28;20201;-70
2023/04/08 11:06:11;;;;;;;13.30;12.33;;;;;;;8.59;76.48;102004.34;5116853;28;20189;-71
2023/04/08 11:08:38;;;;;;;14.40;13.17;;;;;;;8.68;77.40;101996.81;5116583;28;20184;-71
2023/04/08 11:11:09;;;;;;;12.50;11.30;;;;;;;8.69;76.45;102001.25;5116514;28;20199;-71
2023/04/08 11:13:40;;;;;;;14.80;12.00;;;;;;;8.76;77.21;101999.16;5116947;28;20237;-70
2023/04/08 11:16:18;;;;;;;13.10;12.00;;;;;;;8.81;77.41;101999.84;5116838;28;20260;-71
2023/04/08 11:18:44;;;;;;;12.47;11.43;;;;;;;8.98;76.62;102004.44;5116308;28;20633;-71
2023/04/08 11:21:11;;;;;;;12.60;11.53;;;;;;;9.15;76.97;102001.00;5116678;28;20706;-71
2023/04/08 11:23:37;;;;;;;14.00;12.63;;;;;;;9.27;77.31;102004.94;5116171;28;20209;-70